Time;durP1;ratioP1;P1;durP2;ratioP2;P2;SDS_P1;SDS_P2;PMS_P1;PMS_P2;Temp;Humidity;BMP_temperature;BMP_pressure;BME280_temperature;BME280_humidity;BME280_pressure;Samples;Min_cycle;Max_cycle;Signal;HPM_P1;HPM_P2
2021/12/27 00:00:10;;;;;;;1.70;1.60;;;19.20;35.10;;;;;;5039567;28;20456;-59
2021/12/27 00:02:37;;;;;;;1.50;1.40;;;19.20;35.00;;;;;;5035948;28;20460;-61
2021/12/27 00:05:04;;;;;;;1.40;1.30;;;19.20;35.00;;;;;;5035423;28;20518;-59
2021/12/27 00:07:30;;;;;;;1.53;1.43;;;19.20;35.00;;;;;;5036519;28;20447;-63
2021/12/27 00:09:56;;;;;;;1.50;1.40;;;19.20;35.00;;;;;;5039022;28;20497;-63
2021/12/27 00:12:21;;;;;;;1.53;1.43;;;19.20;35.00;;;;;;5036941;28;20245;-62
2021/12/27 00:14:47;;;;;;;1.60;1.50;;;19.20;35.00;;;;;;5036835;28;20223;-61
2021/12/27 00:17:13;;;;;;;2.00;1.90;;;19.20;35.00;;;;;;5036412;28;20211;-65
2021/12/27 00:19:38;;;;;;;1.63;1.53;;;19.20;35.10;;;;;;5038753;28;20219;-60
2021/12/27 00:22:04;;;;;;;1.40;1.30;;;19.20;35.00;;;;;;5041324;28;20249;-59
2021/12/27 00:24:30;;;;;;;1.43;1.33;;;19.20;35.00;;;;;;5038897;28;20230;-59
2021/12/27 00:26:55;;;;;;;1.30;1.20;;;19.20;35.10;;;;;;5043104;28;20227;-66
2021/12/27 00:29:21;;;;;;;1.70;1.60;;;19.20;35.00;;;;;;5040020;28;20296;-63
2021/12/27 00:31:47;;;;;;;1.50;1.40;;;19.20;35.00;;;;;;5041860;28;20226;-60
2021/12/27 00:34:13;;;;;;;1.40;1.30;;;19.20;35.00;;;;;;5040307;28;20447;-60
2021/12/27 00:36:39;;;;;;;1.70;1.60;;;19.20;35.00;;;;;;5042454;28;20218;-60
2021/12/27 00:39:05;;;;;;;1.37;1.27;;;19.20;35.00;;;;;;5036200;28;20223;-64
2021/12/27 00:41:31;;;;;;;1.30;1.20;;;19.20;35.00;;;;;;5041154;28;20226;-64
2021/12/27 00:43:57;;;;;;;1.53;1.43;;;19.20;35.00;;;;;;5040080;28;20440;-60
2021/12/27 00:46:23;;;;;;;1.40;1.30;;;19.20;35.00;;;;;;5042289;28;20674;-59
2021/12/27 00:48:48;;;;;;;1.30;1.20;;;19.20;35.00;;;;;;5040393;28;20223;-72
2021/12/27 00:51:14;;;;;;;1.50;1.40;;;19.20;35.00;;;;;;5039182;28;20444;-59
2021/12/27 00:53:40;;;;;;;1.40;1.30;;;19.20;35.00;;;;;;5040412;28;20229;-59
2021/12/27 00:56:06;;;;;;;1.83;1.73;;;19.20;35.00;;;;;;5041200;28;20528;-60
2021/12/27 00:58:32;;;;;;;1.53;1.43;;;19.20;34.90;;;;;;5040911;28;20241;-60
2021/12/27 01:00:57;;;;;;;1.47;1.37;;;19.20;34.90;;;;;;5040566;28;20767;-59
2021/12/27 01:03:23;;;;;;;1.50;1.40;;;19.20;35.00;;;;;;5042390;28;20396;-66
2021/12/27 01:05:50;;;;;;;1.50;1.40;;;19.20;35.00;;;;;;5038062;28;20241;-61
2021/12/27 01:08:17;;;;;;;1.60;1.50;;;19.20;34.90;;;;;;5038582;28;20219;-67
2021/12/27 01:11:02;;;;;;;1.80;1.70;;;19.20;35.00;;;;;;5042086;28;20538;-63
2021/12/27 01:13:41;;;;;;;1.43;1.33;;;19.20;35.00;;;;;;5039538;28;20490;-66
2021/12/27 01:16:11;;;;;;;1.50;1.40;;;19.20;35.00;;;;;;5039835;28;20443;-60
2021/12/27 01:18:46;;;;;;;1.40;1.30;;;19.20;34.90;;;;;;5039585;28;20451;-62
2021/12/27 01:21:13;;;;;;;1.50;1.40;;;19.20;35.00;;;;;;5038206;28;21220;-60
2021/12/27 01:23:39;;;;;;;1.50;1.40;;;19.20;34.90;;;;;;5037586;28;20463;-60
2021/12/27 01:26:05;;;;;;;1.43;1.33;;;19.20;35.00;;;;;;5040987;28;20462;-60
2021/12/27 01:28:31;;;;;;;1.30;1.20;;;19.20;35.00;;;;;;5039783;28;20534;-60
2021/12/27 01:30:57;;;;;;;1.50;1.40;;;19.20;35.00;;;;;;5040914;28;20226;-59
2021/12/27 01:33:24;;;;;;;1.90;1.80;;;19.20;35.00;;;;;;5033331;28;20223;-61
2021/12/27 01:35:51;;;;;;;1.50;1.40;;;19.20;35.00;;;;;;5040013;28;21087;-61
2021/12/27 01:38:17;;;;;;;1.33;1.23;;;19.20;35.00;;;;;;5042555;28;20465;-61
2021/12/27 01:40:46;;;;;;;1.30;1.20;;;19.20;35.00;;;;;;5038857;28;20448;-59
2021/12/27 01:43:15;;;;;;;1.60;1.50;;;19.20;35.00;;;;;;5039259;28;21166;-63
2021/12/27 01:45:54;;;;;;;1.50;1.40;;;19.20;35.00;;;;;;5040252;28;20527;-59
2021/12/27 01:48:23;;;;;;;1.33;1.23;;;19.20;35.00;;;;;;5039764;28;20540;-63
2021/12/27 01:50:53;;;;;;;2.00;1.90;;;19.20;34.90;;;;;;5037547;28;20452;-65
2021/12/27 01:53:21;;;;;;;1.40;1.30;;;19.20;35.00;;;;;;5041354;28;20841;-60
2021/12/27 01:55:47;;;;;;;1.73;1.63;;;19.20;35.00;;;;;;5039020;28;20539;-60
2021/12/27 01:58:13;;;;;;;1.50;1.40;;;19.20;35.00;;;;;;5041902;28;20426;-59
2021/12/27 02:00:42;;;;;;;1.30;1.20;;;19.20;34.90;;;;;;5037839;28;20438;-59
2021/12/27 02:03:08;;;;;;;1.40;1.30;;;19.20;35.00;;;;;;5035449;28;20449;-59
2021/12/27 02:05:34;;;;;;;1.20;1.10;;;19.20;35.00;;;;;;5039087;28;20447;-59
2021/12/27 02:07:59;;;;;;;1.50;1.40;;;19.20;35.00;;;;;;5039106;28;20215;-60
2021/12/27 02:10:25;;;;;;;1.30;1.20;;;19.20;34.90;;;;;;5035841;28;20219;-61
2021/12/27 02:12:51;;;;;;;1.40;1.30;;;19.20;34.90;;;;;;5039295;28;20226;-63
2021/12/27 02:15:17;;;;;;;1.20;1.10;;;19.20;34.90;;;;;;5038978;28;20627;-61
2021/12/27 02:17:43;;;;;;;1.50;1.40;;;19.20;35.70;;;;;;5038341;28;20214;-65
2021/12/27 02:20:16;;;;;;;1.40;1.30;;;19.20;34.90;;;;;;5038487;28;20945;-60
2021/12/27 02:22:43;;;;;;;1.30;1.20;;;19.20;34.90;;;;;;5039614;28;20436;-59
2021/12/27 02:25:09;;;;;;;1.40;1.30;;;19.20;34.90;;;;;;5042810;28;20439;-59
2021/12/27 02:27:35;;;;;;;1.83;1.40;;;19.20;34.90;;;;;;5038815;28;20451;-60
2021/12/27 02:30:03;;;;;;;1.60;1.50;;;19.20;34.90;;;;;;5038273;28;20415;-66
2021/12/27 02:32:30;;;;;;;1.43;1.33;;;19.20;34.90;;;;;;5036316;28;20301;-65
2021/12/27 02:34:56;;;;;;;1.40;1.30;;;19.20;34.90;;;;;;5029322;28;20429;-61
2021/12/27 02:37:21;;;;;;;1.60;1.50;;;19.20;34.90;;;;;;5052571;28;20559;-64
2021/12/27 02:39:47;;;;;;;1.33;1.23;;;19.20;34.90;;;;;;5039149;28;20219;-64
2021/12/27 02:42:19;;;;;;;1.20;1.10;;;19.20;34.90;;;;;;5038269;28;20226;-59
2021/12/27 02:44:45;;;;;;;1.50;1.40;;;19.20;34.90;;;;;;5035844;28;20318;-59
2021/12/27 02:47:13;;;;;;;1.20;1.10;;;19.20;34.90;;;;;;5040901;28;20522;-59
2021/12/27 02:49:39;;;;;;;1.40;1.30;;;19.20;34.90;;;;;;5038738;28;20676;-61
2021/12/27 02:52:05;;;;;;;1.70;1.47;;;19.10;34.80;;;;;;5038174;28;20536;-60
2021/12/27 02:54:30;;;;;;;1.40;1.30;;;19.20;34.90;;;;;;5039060;28;20568;-66
2021/12/27 02:56:56;;;;;;;1.17;1.07;;;19.20;34.90;;;;;;5037453;28;20453;-60
2021/12/27 02:59:22;;;;;;;1.60;1.50;;;19.20;34.90;;;;;;5039658;28;20635;-67
2021/12/27 03:01:47;;;;;;;1.30;1.20;;;19.10;34.80;;;;;;5037782;28;20227;-62
2021/12/27 03:04:13;;;;;;;1.50;1.40;;;19.20;34.90;;;;;;5038665;28;20232;-59
2021/12/27 03:06:38;;;;;;;1.27;1.17;;;19.10;34.80;;;;;;5036978;28;20219;-59
2021/12/27 03:09:04;;;;;;;1.20;1.10;;;19.20;34.90;;;;;;5035264;28;20219;-59
2021/12/27 03:11:29;;;;;;;1.40;1.30;;;19.10;34.70;;;;;;5036452;28;20279;-59
2021/12/27 03:13:55;;;;;;;1.37;1.27;;;19.10;34.80;;;;;;5040720;28;20686;-59
2021/12/27 03:16:23;;;;;;;1.43;1.33;;;19.10;34.80;;;;;;5037388;28;20322;-66
2021/12/27 03:18:54;;;;;;;1.47;1.37;;;19.10;34.80;;;;;;5038070;28;20223;-59
2021/12/27 03:21:19;;;;;;;1.20;1.10;;;19.10;34.80;;;;;;5033888;28;20582;-59
2021/12/27 03:23:47;;;;;;;1.30;1.20;;;19.20;34.80;;;;;;5038991;28;20535;-59
2021/12/27 03:26:13;;;;;;;1.50;1.40;;;19.10;34.70;;;;;;5038280;28;20218;-59
2021/12/27 03:28:40;;;;;;;1.20;1.10;;;19.10;34.80;;;;;;5038923;28;20451;-59
2021/12/27 03:31:07;;;;;;;1.10;1.00;;;19.20;35.00;;;;;;5036903;28;20478;-59
2021/12/27 03:33:33;;;;;;;1.40;1.30;;;19.10;34.80;;;;;;5037528;28;20459;-67
2021/12/27 03:36:01;;;;;;;1.47;1.37;;;19.10;34.80;;;;;;5040493;28;20452;-60
2021/12/27 03:38:33;;;;;;;1.30;1.20;;;19.10;34.80;;;;;;5036541;28;20591;-64
2021/12/27 03:41:00;;;;;;;1.50;1.40;;;19.20;34.90;;;;;;5037118;28;20424;-59
2021/12/27 03:43:26;;;;;;;1.33;1.23;;;19.10;34.80;;;;;;5037232;28;20451;-62
2021/12/27 03:45:51;;;;;;;1.30;1.20;;;19.10;34.80;;;;;;5036457;28;20446;-64
2021/12/27 03:48:17;;;;;;;1.30;1.20;;;19.10;34.80;;;;;;5039867;28;20598;-59
2021/12/27 03:50:43;;;;;;;1.20;1.10;;;19.10;34.80;;;;;;5037155;28;20910;-60
2021/12/27 03:53:08;;;;;;;1.33;1.20;;;19.10;34.80;;;;;;5034693;28;20214;-59
2021/12/27 03:55:34;;;;;;;1.50;1.40;;;19.10;34.80;;;;;;5039632;28;20269;-64
2021/12/27 03:58:09;;;;;;;1.47;1.37;;;19.10;34.80;;;;;;5042344;28;20218;-59
2021/12/27 04:00:59;;;;;;;1.40;1.30;;;19.10;34.80;;;;;;5043627;28;20444;-59
2021/12/27 04:03:24;;;;;;;1.60;1.50;;;19.10;34.80;;;;;;5038467;28;20455;-60
2021/12/27 04:05:50;;;;;;;1.23;1.13;;;19.10;34.80;;;;;;5042229;28;20452;-60
2021/12/27 04:08:18;;;;;;;1.23;1.17;;;19.10;34.80;;;;;;5043899;28;20295;-61
2021/12/27 04:10:45;;;;;;;1.37;1.27;;;19.10;34.80;;;;;;5039694;28;20785;-59
2021/12/27 04:13:12;;;;;;;1.27;1.17;;;19.10;34.80;;;;;;5040922;28;20999;-61
2021/12/27 04:15:38;;;;;;;1.30;1.20;;;19.10;34.80;;;;;;5042195;28;20463;-59
2021/12/27 04:18:05;;;;;;;1.40;1.30;;;19.10;34.80;;;;;;5041176;28;20465;-59
2021/12/27 04:20:31;;;;;;;1.40;1.30;;;19.10;34.80;;;;;;5039315;28;20444;-59
2021/12/27 04:22:57;;;;;;;1.27;1.17;;;19.10;34.80;;;;;;5041629;28;20856;-60
2021/12/27 04:25:23;;;;;;;1.47;1.37;;;19.10;34.80;;;;;;5042316;28;20255;-62
2021/12/27 04:27:50;;;;;;;1.20;1.10;;;19.10;34.80;;;;;;5042272;28;20711;-60
2021/12/27 04:30:17;;;;;;;1.40;1.30;;;19.10;34.80;;;;;;5038936;28;20578;-59
2021/12/27 04:32:43;;;;;;;1.50;1.40;;;19.10;34.80;;;;;;5040793;28;20419;-62
2021/12/27 04:35:09;;;;;;;1.20;1.10;;;19.10;34.70;;;;;;5043973;28;20453;-59
2021/12/27 04:37:35;;;;;;;1.30;1.20;;;19.10;34.70;;;;;;5040346;28;20260;-59
2021/12/27 04:40:03;;;;;;;1.30;1.20;;;19.10;34.70;;;;;;5040861;28;20452;-59
2021/12/27 04:42:31;;;;;;;1.30;1.20;;;19.10;34.80;;;;;;5042364;28;20221;-61
2021/12/27 04:44:58;;;;;;;1.10;1.00;;;19.10;34.80;;;;;;5040101;28;20506;-60
2021/12/27 04:47:24;;;;;;;1.33;1.23;;;19.10;34.80;;;;;;5041299;28;20449;-72
2021/12/27 04:49:50;;;;;;;1.50;1.40;;;19.10;34.80;;;;;;5040142;28;20479;-60
2021/12/27 04:52:15;;;;;;;1.07;1.00;;;19.10;34.80;;;;;;5041892;28;20457;-59
2021/12/27 04:54:41;;;;;;;1.50;1.40;;;19.10;35.60;;;;;;5041353;28;20230;-59
2021/12/27 04:57:07;;;;;;;1.17;1.07;;;19.10;34.80;;;;;;5040733;28;20225;-59
2021/12/27 04:59:33;;;;;;;0.97;0.90;;;19.10;34.80;;;;;;5041703;28;20223;-60
2021/12/27 05:01:59;;;;;;;1.30;1.20;;;19.10;34.80;;;;;;5038125;28;20211;-59
2021/12/27 05:04:24;;;;;;;1.33;1.20;;;19.10;34.80;;;;;;5040689;28;20963;-63
2021/12/27 05:06:50;;;;;;;1.20;1.10;;;19.10;35.60;;;;;;5039527;28;20223;-59
2021/12/27 05:09:15;;;;;;;1.20;1.10;;;19.10;34.80;;;;;;5042649;28;20211;-61
2021/12/27 05:11:41;;;;;;;1.20;1.10;;;19.10;34.80;;;;;;5038775;28;20230;-59
2021/12/27 05:14:07;;;;;;;1.00;1.00;;;19.10;34.90;;;;;;5038045;28;20245;-59
2021/12/27 05:16:33;;;;;;;1.30;1.20;;;19.10;35.60;;;;;;5040541;28;20250;-60
2021/12/27 05:18:59;;;;;;;1.33;1.23;;;19.10;34.80;;;;;;5041775;28;20300;-60
2021/12/27 05:21:24;;;;;;;1.13;1.03;;;19.10;34.80;;;;;;5040064;28;20358;-60
2021/12/27 05:23:50;;;;;;;1.30;1.20;;;19.10;34.80;;;;;;5037598;28;20270;-59
2021/12/27 05:26:16;;;;;;;1.10;1.00;;;19.10;34.80;;;;;;5045544;28;20702;-59
2021/12/27 05:28:42;;;;;;;1.20;1.10;;;19.10;34.80;;;;;;5039883;28;20450;-59
2021/12/27 05:31:07;;;;;;;1.30;1.20;;;19.10;34.80;;;;;;5039663;28;20585;-63
2021/12/27 05:33:33;;;;;;;1.30;1.20;;;19.10;34.80;;;;;;5040363;28;20705;-63
2021/12/27 05:35:59;;;;;;;1.20;1.10;;;19.10;34.80;;;;;;5040913;28;20218;-59
2021/12/27 05:38:24;;;;;;;1.77;1.60;;;19.10;34.80;;;;;;5039412;28;20210;-63
2021/12/27 05:40:52;;;;;;;1.20;1.10;;;19.10;34.70;;;;;;5038586;28;20215;-59
2021/12/27 05:43:18;;;;;;;1.03;0.93;;;19.10;34.70;;;;;;5039131;28;20222;-61
2021/12/27 05:45:44;;;;;;;0.90;0.90;;;19.10;34.70;;;;;;5040069;28;20471;-60
2021/12/27 05:48:09;;;;;;;1.37;1.27;;;19.10;34.70;;;;;;5039172;28;20739;-59
2021/12/27 05:50:35;;;;;;;1.20;1.10;;;19.10;34.70;;;;;;5042051;28;20591;-59
2021/12/27 05:53:01;;;;;;;1.30;1.20;;;19.10;35.50;;;;;;5039223;28;20239;-62
2021/12/27 05:55:28;;;;;;;1.30;1.20;;;19.10;35.50;;;;;;5036355;28;20465;-61
2021/12/27 05:57:54;;;;;;;1.20;1.10;;;19.10;34.70;;;;;;5036927;28;20224;-63
2021/12/27 06:00:19;;;;;;;1.27;1.17;;;19.10;34.80;;;;;;5039299;28;20443;-59
2021/12/27 06:02:45;;;;;;;1.33;1.23;;;19.10;34.70;;;;;;5041101;28;20222;-59
2021/12/27 06:05:12;;;;;;;1.50;1.40;;;19.10;34.70;;;;;;5039134;28;21342;-59
2021/12/27 06:07:38;;;;;;;1.20;1.10;;;19.10;34.70;;;;;;5037008;28;20499;-60
2021/12/27 06:10:05;;;;;;;1.17;1.07;;;19.10;34.70;;;;;;5041101;28;20840;-66
2021/12/27 06:12:32;;;;;;;1.30;1.20;;;19.10;34.70;;;;;;5040332;28;20666;-60
2021/12/27 06:14:58;;;;;;;1.13;1.03;;;19.10;34.70;;;;;;5040463;28;20505;-60
2021/12/27 06:17:24;;;;;;;1.20;1.10;;;19.10;34.70;;;;;;5039737;28;20444;-63
2021/12/27 06:19:50;;;;;;;1.30;1.20;;;19.10;34.70;;;;;;5039404;28;20229;-59
2021/12/27 06:22:15;;;;;;;1.10;1.00;;;19.10;34.70;;;;;;5035756;28;20511;-62
2021/12/27 06:24:41;;;;;;;1.33;1.23;;;19.10;34.70;;;;;;5037938;28;20246;-59
2021/12/27 06:27:07;;;;;;;1.30;1.20;;;19.10;34.70;;;;;;5039405;28;20225;-59
2021/12/27 06:29:32;;;;;;;1.20;1.10;;;19.10;34.70;;;;;;5038645;28;20645;-62
2021/12/27 06:31:58;;;;;;;1.23;1.13;;;19.10;34.70;;;;;;5037038;28;20222;-59
2021/12/27 06:34:23;;;;;;;1.10;1.00;;;19.10;34.70;;;;;;5037150;28;20211;-63
2021/12/27 06:36:49;;;;;;;1.20;1.10;;;19.10;34.70;;;;;;5040550;28;20239;-60
2021/12/27 06:39:15;;;;;;;1.20;1.10;;;19.10;34.70;;;;;;5038359;28;20762;-60
2021/12/27 06:41:40;;;;;;;1.30;1.20;;;19.10;34.70;;;;;;5037681;28;20226;-60
2021/12/27 06:44:06;;;;;;;1.20;1.10;;;19.10;34.70;;;;;;5038336;28;20268;-59
2021/12/27 06:46:32;;;;;;;1.00;1.00;;;19.10;34.70;;;;;;5040393;28;20747;-60
2021/12/27 06:48:58;;;;;;;1.20;1.10;;;19.10;34.70;;;;;;5035455;28;20222;-59
2021/12/27 06:51:23;;;;;;;1.67;1.10;;;19.10;34.70;;;;;;5037834;28;20226;-61
2021/12/27 06:53:49;;;;;;;1.23;1.17;;;19.10;34.70;;;;;;5036704;28;20246;-61
2021/12/27 06:56:15;;;;;;;1.23;1.13;;;19.10;34.70;;;;;;5040588;28;20301;-60
2021/12/27 06:58:40;;;;;;;1.00;1.00;;;19.10;34.70;;;;;;5036868;28;20362;-63
2021/12/27 07:01:07;;;;;;;1.30;1.20;;;19.10;34.70;;;;;;5036313;28;20272;-60
2021/12/27 07:03:32;;;;;;;1.20;1.10;;;19.10;34.70;;;;;;5038899;28;20218;-63
2021/12/27 07:05:59;;;;;;;1.10;1.03;;;19.10;34.70;;;;;;5039131;28;21047;-59
2021/12/27 07:08:24;;;;;;;1.30;1.20;;;19.10;34.70;;;;;;5039281;28;20242;-60
2021/12/27 07:10:50;;;;;;;1.30;1.20;;;19.10;34.70;;;;;;5038429;28;20520;-60
2021/12/27 07:13:16;;;;;;;1.20;1.10;;;19.10;34.70;;;;;;5037501;28;20215;-59
2021/12/27 07:15:42;;;;;;;1.03;1.00;;;19.10;34.90;;;;;;5034538;28;20229;-59
2021/12/27 07:18:22;;;;;;;1.27;1.17;;;19.10;34.70;;;;;;5038727;28;20773;-59
2021/12/27 07:20:49;;;;;;;1.10;1.00;;;19.10;34.70;;;;;;5038329;28;20227;-70
2021/12/27 07:23:15;;;;;;;1.30;1.20;;;19.10;34.70;;;;;;5037378;28;20463;-60
2021/12/27 07:25:40;;;;;;;1.20;1.10;;;19.10;34.70;;;;;;5037123;28;20456;-65
2021/12/27 07:28:06;;;;;;;1.30;1.20;;;19.10;34.70;;;;;;5038347;28;20587;-63
2021/12/27 07:30:32;;;;;;;1.27;1.17;;;19.10;34.60;;;;;;5038540;28;20229;-59
2021/12/27 07:32:58;;;;;;;1.20;1.10;;;19.10;34.70;;;;;;5036710;28;20583;-59
2021/12/27 07:35:25;;;;;;;1.20;1.10;;;19.10;34.70;;;;;;5039068;28;20226;-59
2021/12/27 07:37:51;;;;;;;1.20;1.10;;;19.10;35.40;;;;;;5036079;28;20219;-60
2021/12/27 07:40:16;;;;;;;1.30;1.20;;;19.10;34.70;;;;;;5041241;28;20431;-59
2021/12/27 07:42:42;;;;;;;1.30;1.20;;;19.10;34.60;;;;;;5035849;28;20706;-59
2021/12/27 07:45:10;;;;;;;1.00;1.00;;;19.10;34.60;;;;;;5038347;28;20319;-59
2021/12/27 07:47:35;;;;;;;1.10;1.00;;;19.10;34.70;;;;;;5039433;28;20747;-59
2021/12/27 07:50:01;;;;;;;1.33;1.23;;;19.10;34.70;;;;;;5040565;28;20494;-59
2021/12/27 07:52:27;;;;;;;1.10;1.00;;;19.10;34.60;;;;;;5037707;28;20214;-66
2021/12/27 07:54:52;;;;;;;1.20;1.10;;;19.10;34.60;;;;;;5039315;28;20269;-59
2021/12/27 07:57:18;;;;;;;1.23;1.13;;;19.10;34.70;;;;;;5037338;28;20222;-62
2021/12/27 07:59:47;;;;;;;1.37;1.27;;;19.10;34.70;;;;;;5038537;28;20211;-71
2021/12/27 08:02:14;;;;;;;1.17;1.07;;;19.10;34.60;;;;;;5038328;28;20225;-66
2021/12/27 08:04:39;;;;;;;1.20;1.10;;;19.10;34.60;;;;;;5036532;28;20475;-60
2021/12/27 08:07:05;;;;;;;1.20;1.10;;;19.10;34.60;;;;;;5040737;28;20435;-59
2021/12/27 08:09:30;;;;;;;1.30;1.20;;;19.10;34.70;;;;;;5037255;28;20565;-59
2021/12/27 08:11:56;;;;;;;1.00;1.00;;;19.10;34.70;;;;;;5036416;28;20558;-60
2021/12/27 08:14:22;;;;;;;1.40;1.30;;;19.10;34.70;;;;;;5037515;28;20245;-63
2021/12/27 08:16:47;;;;;;;1.20;1.10;;;19.10;34.60;;;;;;5038529;28;20225;-60
2021/12/27 08:19:13;;;;;;;1.20;1.10;;;19.10;34.70;;;;;;5038391;28;20219;-60
2021/12/27 08:21:39;;;;;;;1.20;1.10;;;19.10;34.70;;;;;;5035382;28;20249;-62
2021/12/27 08:24:08;;;;;;;1.30;1.20;;;19.10;34.60;;;;;;5040613;28;20218;-60
2021/12/27 08:26:34;;;;;;;1.20;1.10;;;19.10;34.60;;;;;;5036433;28;20303;-63
2021/12/27 08:29:03;;;;;;;1.20;1.10;;;19.10;34.60;;;;;;5037836;28;20528;-59
2021/12/27 08:31:28;;;;;;;1.33;1.23;;;19.10;34.60;;;;;;5036341;28;20451;-59
2021/12/27 08:33:54;;;;;;;1.20;1.10;;;19.10;34.60;;;;;;5036929;28;20490;-64
2021/12/27 08:36:20;;;;;;;0.97;0.97;;;19.10;34.60;;;;;;5034342;28;20226;-60
2021/12/27 08:38:48;;;;;;;1.20;1.10;;;19.10;34.60;;;;;;5037763;28;20218;-60
2021/12/27 08:41:14;;;;;;;1.30;1.20;;;19.10;34.60;;;;;;5038121;28;20218;-60
2021/12/27 08:43:40;;;;;;;1.20;1.10;;;19.10;34.60;;;;;;5042582;28;20853;-59
2021/12/27 08:46:05;;;;;;;1.40;1.30;;;19.10;34.60;;;;;;5039061;28;20467;-59
2021/12/27 08:48:31;;;;;;;1.20;1.10;;;19.10;34.60;;;;;;5038566;28;20269;-65
2021/12/27 08:50:56;;;;;;;1.30;1.20;;;19.10;34.70;;;;;;5041145;28;20753;-59
2021/12/27 08:53:22;;;;;;;1.30;1.20;;;19.10;34.60;;;;;;5036200;28;20230;-62
2021/12/27 08:55:48;;;;;;;1.20;1.10;;;19.10;34.60;;;;;;5041457;28;20245;-63
2021/12/27 08:58:14;;;;;;;1.17;1.07;;;19.10;34.60;;;;;;5041060;28;20249;-59
2021/12/27 09:00:39;;;;;;;1.13;1.03;;;19.10;34.60;;;;;;5039116;28;20664;-59
2021/12/27 09:03:05;;;;;;;1.40;1.30;;;19.10;34.60;;;;;;5038941;28;20510;-59
2021/12/27 09:05:31;;;;;;;1.30;1.20;;;19.10;34.70;;;;;;5041298;28;20316;-65
2021/12/27 09:07:56;;;;;;;1.33;1.23;;;19.10;35.50;;;;;;5040485;28;20664;-59
2021/12/27 09:10:22;;;;;;;1.27;1.17;;;19.10;34.70;;;;;;5040700;28;20223;-61
2021/12/27 09:12:48;;;;;;;1.23;1.13;;;19.10;34.70;;;;;;5039274;28;20214;-59
2021/12/27 09:15:14;;;;;;;1.20;1.10;;;19.10;34.70;;;;;;5038877;28;20231;-59
2021/12/27 09:17:40;;;;;;;1.27;1.17;;;19.10;34.70;;;;;;5039837;28;20325;-60
2021/12/27 09:20:07;;;;;;;1.10;1.00;;;19.10;34.60;;;;;;5039485;28;20539;-59
2021/12/27 09:22:32;;;;;;;1.37;1.27;;;19.10;34.60;;;;;;5040013;28;20280;-60
2021/12/27 09:24:58;;;;;;;1.40;1.30;;;19.00;34.60;;;;;;5039977;28;20949;-59
2021/12/27 09:27:24;;;;;;;1.30;1.20;;;19.10;34.70;;;;;;5043187;28;20244;-67
2021/12/27 09:29:50;;;;;;;1.10;1.00;;;19.00;34.50;;;;;;5038281;28;20321;-62
2021/12/27 09:32:16;;;;;;;1.20;1.10;;;19.10;34.60;;;;;;5038971;28;20219;-59
2021/12/27 09:34:42;;;;;;;1.30;1.17;;;19.00;34.60;;;;;;5041268;28;20452;-59
2021/12/27 09:37:08;;;;;;;1.10;1.00;;;19.00;34.60;;;;;;5039953;28;20777;-59
2021/12/27 09:39:34;;;;;;;1.20;1.10;;;19.00;34.60;;;;;;5039781;28;20230;-60
2021/12/27 09:42:00;;;;;;;1.10;1.00;;;19.00;34.60;;;;;;5040327;28;20800;-62
2021/12/27 09:44:26;;;;;;;1.30;1.20;;;19.00;34.50;;;;;;5038444;28;20276;-63
2021/12/27 09:46:52;;;;;;;1.40;1.30;;;19.00;34.60;;;;;;5037705;28;20467;-59
2021/12/27 09:49:20;;;;;;;1.20;1.10;;;19.10;34.60;;;;;;5040729;28;20447;-64
2021/12/27 09:51:46;;;;;;;1.30;1.20;;;19.10;34.60;;;;;;5036823;28;20215;-63
2021/12/27 09:54:13;;;;;;;1.07;1.00;;;19.10;34.70;;;;;;5038136;28;20961;-59
2021/12/27 09:56:40;;;;;;;1.40;1.30;;;19.00;34.60;;;;;;5036346;28;20476;-59
2021/12/27 09:59:05;;;;;;;1.10;1.00;;;19.00;34.60;;;;;;5039517;28;20791;-59
2021/12/27 10:01:31;;;;;;;1.10;1.00;;;19.00;34.60;;;;;;5035008;28;20530;-59
2021/12/27 10:04:00;;;;;;;1.10;1.00;;;19.10;34.60;;;;;;5039053;28;20218;-60
2021/12/27 10:06:28;;;;;;;1.10;1.00;;;19.00;34.60;;;;;;5039075;28;21003;-66
2021/12/27 10:08:58;;;;;;;1.20;1.10;;;19.10;34.70;;;;;;5037404;28;20918;-62
2021/12/27 10:11:26;;;;;;;1.00;1.00;;;19.10;35.40;;;;;;5038866;28;20561;-59
2021/12/27 10:14:03;;;;;;;1.10;1.00;;;19.10;34.70;;;;;;5037090;28;20432;-59
2021/12/27 10:16:30;;;;;;;1.13;1.03;;;19.00;34.60;;;;;;5039978;28;20451;-59
2021/12/27 10:19:01;;;;;;;1.20;1.10;;;19.00;34.60;;;;;;5039591;28;20466;-62
2021/12/27 10:21:27;;;;;;;1.43;1.33;;;19.10;34.70;;;;;;5040498;28;20418;-64
2021/12/27 10:24:15;;;;;;;1.20;1.10;;;19.00;34.60;;;;;;5037240;28;20445;-62
2021/12/27 10:26:43;;;;;;;1.13;1.03;;;19.00;34.60;;;;;;5039399;28;20514;-59
2021/12/27 10:29:16;;;;;;;1.10;1.00;;;19.00;34.60;;;;;;5039087;28;20463;-59
2021/12/27 10:32:00;;;;;;;0.93;0.90;;;19.00;34.60;;;;;;5037181;28;20410;-59
2021/12/27 10:34:29;;;;;;;1.17;1.07;;;19.00;34.60;;;;;;5036038;28;20451;-60
2021/12/27 10:37:07;;;;;;;1.20;1.10;;;19.00;34.60;;;;;;5037869;28;20444;-60
2021/12/27 10:39:41;;;;;;;1.30;1.20;;;19.00;34.60;;;;;;5035718;28;20456;-59
2021/12/27 10:42:08;;;;;;;1.20;1.10;;;19.00;34.60;;;;;;5039697;28;20939;-59
2021/12/27 10:44:36;;;;;;;1.13;1.03;;;19.00;34.60;;;;;;5038733;28;20479;-64
2021/12/27 10:47:02;;;;;;;1.17;1.07;;;19.00;34.60;;;;;;5038777;28;20463;-62
2021/12/27 10:49:48;;;;;;;1.10;1.00;;;19.00;34.60;;;;;;5033227;28;20526;-60
2021/12/27 10:52:14;;;;;;;1.30;1.20;;;19.00;34.60;;;;;;5034007;28;20849;-59
2021/12/27 10:54:40;;;;;;;1.00;1.00;;;19.00;34.60;;;;;;5038302;28;20415;-60
2021/12/27 10:57:06;;;;;;;1.00;0.90;;;19.00;34.60;;;;;;5038289;28;20281;-59
2021/12/27 10:59:32;;;;;;;1.00;1.00;;;19.00;34.60;;;;;;5038580;28;20798;-60
2021/12/27 11:02:09;;;;;;;1.20;1.10;;;19.00;34.60;;;;;;5038448;28;20234;-62
2021/12/27 11:04:36;;;;;;;1.10;1.00;;;19.00;34.60;;;;;;5040753;28;20236;-60
2021/12/27 11:07:06;;;;;;;1.33;1.23;;;19.00;34.60;;;;;;5035863;28;20451;-60
2021/12/27 11:09:33;;;;;;;1.00;1.00;;;19.00;34.60;;;;;;5038818;28;20429;-59
2021/12/27 11:12:00;;;;;;;1.20;1.10;;;19.00;34.60;;;;;;5039922;28;20418;-60
2021/12/27 11:14:26;;;;;;;1.17;1.07;;;19.10;34.60;;;;;;5038190;28;20448;-63
2021/12/27 11:16:53;;;;;;;1.10;1.00;;;19.00;34.60;;;;;;5035728;28;20865;-63
2021/12/27 11:19:19;;;;;;;1.00;1.00;;;19.00;34.60;;;;;;5039821;28;20480;-63
2021/12/27 11:21:47;;;;;;;1.20;1.10;;;19.10;34.70;;;;;;5037801;28;20439;-59
2021/12/27 11:24:14;;;;;;;1.07;1.00;;;19.00;34.60;;;;;;5033921;28;20298;-59
2021/12/27 11:26:41;;;;;;;1.10;1.00;;;19.00;34.70;;;;;;5037072;28;20530;-59
2021/12/27 11:29:21;;;;;;;1.10;1.00;;;19.00;34.60;;;;;;5038615;28;20440;-64
2021/12/27 11:32:09;;;;;;;0.97;0.90;;;19.00;34.60;;;;;;5040854;28;21031;-66
2021/12/27 11:34:56;;;;;;;1.27;1.17;;;19.00;34.70;;;;;;5036493;28;20513;-60
2021/12/27 11:37:41;;;;;;;0.97;0.90;;;19.10;34.70;;;;;;5036202;28;20914;-63
2021/12/27 11:40:10;;;;;;;1.10;1.00;;;19.00;34.70;;;;;;5037127;28;20878;-59
2021/12/27 11:42:55;;;;;;;1.03;1.03;;;19.00;34.60;;;;;;5037266;28;20477;-60
2021/12/27 11:45:44;;;;;;;0.90;0.90;;;19.00;34.70;;;;;;5034014;28;20452;-60
2021/12/27 11:48:16;;;;;;;1.20;1.10;;;19.00;34.70;;;;;;5035033;28;20535;-59
2021/12/27 11:50:56;;;;;;;1.17;1.07;;;19.00;34.60;;;;;;5036641;28;20449;-59
2021/12/27 11:53:31;;;;;;;1.00;0.90;;;19.00;34.60;;;;;;5036211;28;20462;-62
2021/12/27 11:55:57;;;;;;;1.20;1.10;;;19.00;34.70;;;;;;5037427;28;20447;-61
2021/12/27 11:58:35;;;;;;;1.03;0.93;;;19.00;34.60;;;;;;5037662;28;20430;-64
2021/12/27 12:01:05;;;;;;;1.10;1.00;;;19.00;34.70;;;;;;5033558;28;20586;-61
2021/12/27 12:03:40;;;;;;;1.10;1.00;;;19.00;34.70;;;;;;5062823;23;20459;-68
2021/12/27 12:06:07;;;;;;;1.07;0.97;;;19.00;34.70;;;;;;5067378;28;20800;-65
2021/12/27 12:08:36;;;;;;;1.07;0.97;;;19.00;34.60;;;;;;5068701;28;20436;-65
2021/12/27 12:11:07;;;;;;;0.97;0.90;;;19.00;34.60;;;;;;5068523;28;20512;-65
2021/12/27 12:13:36;;;;;;;0.90;0.90;;;19.00;34.60;;;;;;5068422;28;20854;-65
2021/12/27 12:16:10;;;;;;;1.20;1.10;;;19.00;34.60;;;;;;5052118;28;20894;-65
2021/12/27 12:18:39;;;;;;;1.00;0.90;;;19.00;34.70;;;;;;5072613;28;20789;-65
2021/12/27 12:21:06;;;;;;;0.90;0.90;;;19.00;34.60;;;;;;5072419;28;20963;-65
2021/12/27 12:23:36;;;;;;;0.90;0.90;;;19.00;34.70;;;;;;5072435;28;20478;-65
2021/12/27 12:26:03;;;;;;;0.80;0.80;;;19.00;34.70;;;;;;5072226;28;20433;-65
2021/12/27 12:28:29;;;;;;;1.37;1.27;;;19.00;34.70;;;;;;5054325;28;20943;-65
2021/12/27 12:30:56;;;;;;;1.07;1.00;;;19.00;34.70;;;;;;5071943;28;20434;-65
2021/12/27 12:33:25;;;;;;;1.13;1.03;;;19.00;34.70;;;;;;5072374;28;20264;-65
2021/12/27 12:36:00;;;;;;;1.00;0.97;;;19.00;34.70;;;;;;5071880;28;20443;-65
2021/12/27 12:38:31;;;;;;;1.10;1.00;;;19.00;34.70;;;;;;5070703;28;20476;-65
2021/12/27 12:41:03;;;;;;;1.10;1.00;;;19.00;34.80;;;;;;5071899;28;20424;-65
2021/12/27 12:43:44;;;;;;;1.10;1.00;;;19.00;34.70;;;;;;5072128;28;20430;-65
2021/12/27 12:46:16;;;;;;;1.20;1.10;;;19.00;34.70;;;;;;5071565;28;20841;-64
2021/12/27 12:48:43;;;;;;;1.10;1.00;;;19.00;34.70;;;;;;5071896;28;20449;-65